Time;durP1;ratioP1;P1;durP2;ratioP2;P2;SDS_P1;SDS_P2;PMS_P1;PMS_P2;Temp;Humidity;BMP_temperature;BMP_pressure;BME280_temperature;BME280_humidity;BME280_pressure;Samples;Min_cycle;Max_cycle;Signal;HPM_P1;HPM_P2
2022/11/11 00:00:26;;;;;;;8.05;2.58;;;10.50;99.90;;;;;;4997706;28;20034;-46
2022/11/11 00:02:57;;;;;;;12.40;3.00;;;10.50;99.90;;;;;;4997459;28;20029;-47
2022/11/11 00:05:24;;;;;;;8.05;2.72;;;10.50;99.90;;;;;;4999339;28;20018;-45
2022/11/11 00:07:52;;;;;;;12.10;3.35;;;10.50;99.90;;;;;;4996429;28;20090;-45
2022/11/11 00:10:18;;;;;;;12.07;2.97;;;10.50;99.90;;;;;;4997706;28;20053;-46
2022/11/11 00:12:43;;;;;;;7.03;2.80;;;10.40;99.90;;;;;;4997147;28;20067;-46
2022/11/11 00:15:09;;;;;;;5.63;3.10;;;10.50;99.90;;;;;;4994887;28;20075;-47
2022/11/11 00:25:52;;;;;;;5.93;2.63;;;10.50;99.90;;;;;;4995815;28;20087;-45
2022/11/11 00:28:19;;;;;;;11.65;2.75;;;10.50;99.90;;;;;;4995948;28;20416;-46
2022/11/11 00:30:44;;;;;;;8.18;2.72;;;10.40;99.90;;;;;;4994405;28;20029;-46
2022/11/11 00:33:10;;;;;;;10.45;3.55;;;10.40;99.90;;;;;;4994526;28;20022;-45
2022/11/11 00:35:54;;;;;;;10.10;3.08;;;10.40;99.90;;;;;;4998352;28;20394;-46
2022/11/11 00:41:05;;;;;;;11.02;3.08;;;10.40;99.90;;;;;;5002582;28;20395;-45
2022/11/11 00:43:30;;;;;;;10.07;2.92;;;10.40;99.90;;;;;;4994603;28;20030;-45
2022/11/11 00:50:57;;;;;;;12.40;3.13;;;10.30;99.90;;;;;;4999246;28;20022;-45
2022/11/11 00:51:26;;;;;;;7.70;2.92;;;10.40;99.90;;;;;;4997229;28;20057;-45
2022/11/11 00:53:52;;;;;;;5.80;2.78;;;10.40;99.90;;;;;;4999229;28;20022;-45
2022/11/11 00:56:18;;;;;;;7.30;3.17;;;10.30;99.90;;;;;;5002003;28;20036;-45
2022/11/11 00:58:44;;;;;;;8.73;2.85;;;10.30;99.90;;;;;;4999117;28;20023;-47
2022/11/11 01:01:10;;;;;;;5.68;3.25;;;10.30;99.90;;;;;;5001422;28;20044;-45
2022/11/11 01:03:36;;;;;;;12.38;3.03;;;10.20;99.90;;;;;;4997232;28;20026;-46
2022/11/11 01:06:03;;;;;;;7.68;3.08;;;10.20;99.90;;;;;;4997721;28;20029;-44
2022/11/11 01:08:29;;;;;;;10.15;3.17;;;10.20;99.90;;;;;;5006366;28;20018;-45
2022/11/11 01:10:55;;;;;;;9.45;2.75;;;10.20;99.90;;;;;;5000213;28;20030;-45
2022/11/11 01:13:27;;;;;;;7.07;2.55;;;10.10;99.90;;;;;;4995895;28;20034;-48
2022/11/11 01:16:01;;;;;;;8.13;2.97;;;10.20;99.90;;;;;;4996917;28;20509;-44
2022/11/11 01:18:28;;;;;;;8.75;3.72;;;10.20;99.90;;;;;;4998716;28;20492;-45
2022/11/11 01:21:03;;;;;;;13.70;3.13;;;10.20;99.90;;;;;;4997382;28;20025;-44
2022/11/11 01:23:30;;;;;;;7.43;2.65;;;10.10;99.90;;;;;;4995713;28;20389;-46
2022/11/11 01:26:19;;;;;;;9.63;2.95;;;10.10;99.90;;;;;;4998070;28;20083;-45
2022/11/11 01:28:48;;;;;;;11.55;3.03;;;10.00;99.90;;;;;;4997475;28;20029;-45
2022/11/11 01:31:16;;;;;;;7.75;3.08;;;10.00;99.90;;;;;;4999566;28;20080;-48
2022/11/11 01:33:42;;;;;;;6.03;2.33;;;10.00;99.90;;;;;;4996815;28;20048;-45
2022/11/11 01:36:11;;;;;;;9.00;3.15;;;10.00;99.90;;;;;;4995212;28;20061;-48
2022/11/11 01:38:37;;;;;;;6.95;3.22;;;10.00;99.90;;;;;;4997816;28;20426;-46
2022/11/11 01:43:53;;;;;;;5.78;2.70;;;9.90;99.90;;;;;;4997478;28;20022;-45
2022/11/11 01:46:56;;;;;;;17.20;3.60;;;9.90;99.90;;;;;;5000228;28;20081;-45
2022/11/11 01:49:40;;;;;;;9.07;3.00;;;9.90;99.90;;;;;;5001155;28;20116;-40
2022/11/11 01:52:09;;;;;;;9.52;2.83;;;9.80;99.90;;;;;;5001754;28;20018;-39
2022/11/11 01:54:47;;;;;;;9.30;3.03;;;9.80;99.90;;;;;;4996637;28;20018;-39
2022/11/11 01:57:17;;;;;;;6.50;3.38;;;9.90;99.90;;;;;;4995338;28;20491;-40
2022/11/11 01:59:46;;;;;;;11.60;3.03;;;9.80;99.90;;;;;;4995049;28;20038;-40
2022/11/11 02:02:20;;;;;;;8.88;3.30;;;9.90;99.90;;;;;;5011120;28;20035;-40
2022/11/11 02:07:33;;;;;;;13.30;3.53;;;9.80;99.90;;;;;;4995413;28;20051;-40
2022/11/11 02:10:00;;;;;;;9.27;3.20;;;9.80;99.90;;;;;;4996747;28;20030;-39
2022/11/11 02:15:11;;;;;;;10.60;2.63;;;9.90;99.90;;;;;;4996407;28;20395;-40
2022/11/11 02:17:38;;;;;;;8.35;3.05;;;9.90;99.90;;;;;;4997251;28;20022;-39
2022/11/11 02:20:05;;;;;;;9.70;3.00;;;9.80;99.90;;;;;;5003330;28;20027;-39
2022/11/11 02:22:41;;;;;;;9.80;2.80;;;9.80;99.90;;;;;;4995521;28;20018;-39
2022/11/11 02:25:10;;;;;;;7.97;2.85;;;9.80;99.90;;;;;;4994492;28;20391;-39
2022/11/11 02:27:40;;;;;;;6.57;2.95;;;9.80;99.90;;;;;;4993615;28;20041;-39
2022/11/11 02:30:14;;;;;;;16.37;3.23;;;9.80;99.90;;;;;;5002459;28;20260;-39
2022/11/11 02:32:40;;;;;;;4.50;2.78;;;9.80;99.90;;;;;;4995278;28;20422;-40
2022/11/11 02:35:16;;;;;;;8.13;3.28;;;9.80;99.90;;;;;;4994243;28;20466;-40
2022/11/11 02:37:48;;;;;;;11.48;3.30;;;9.80;99.90;;;;;;4993499;28;20029;-39
2022/11/11 02:40:18;;;;;;;9.13;3.10;;;9.70;99.90;;;;;;5002611;28;20074;-39
2022/11/11 02:42:43;;;;;;;8.17;2.70;;;9.70;99.90;;;;;;4995458;28;20025;-39
2022/11/11 02:45:10;;;;;;;9.40;3.20;;;9.70;99.90;;;;;;4994613;28;20387;-39
2022/11/11 02:47:36;;;;;;;10.75;2.88;;;9.70;99.90;;;;;;4994932;28;20019;-40
2022/11/11 02:50:02;;;;;;;13.20;3.10;;;9.70;99.90;;;;;;4982655;28;20371;-40
2022/11/11 02:52:27;;;;;;;9.55;3.22;;;9.70;99.90;;;;;;4996690;28;20339;-40
2022/11/11 02:54:53;;;;;;;7.55;3.30;;;9.70;99.90;;;;;;4995675;28;20069;-40
2022/11/11 02:57:19;;;;;;;10.98;3.10;;;9.70;99.90;;;;;;4996068;28;20117;-39
2022/11/11 02:59:44;;;;;;;13.98;2.97;;;9.70;99.90;;;;;;4997075;28;20487;-40
2022/11/11 03:02:10;;;;;;;8.88;2.70;;;9.70;99.90;;;;;;4993715;28;20079;-40
2022/11/11 03:04:37;;;;;;;9.20;2.90;;;9.70;99.90;;;;;;4996279;28;20390;-47
2022/11/11 03:07:03;;;;;;;7.38;2.70;;;9.70;99.90;;;;;;4996519;28;20026;-40
2022/11/11 03:09:29;;;;;;;10.30;2.72;;;9.70;99.90;;;;;;4999224;28;20482;-40
2022/11/11 03:11:55;;;;;;;9.90;2.97;;;9.70;99.90;;;;;;4997867;28;20101;-40
2022/11/11 03:14:21;;;;;;;7.00;2.70;;;9.70;99.90;;;;;;5000642;28;20148;-40
2022/11/11 03:19:31;;;;;;;10.95;2.42;;;9.70;99.90;;;;;;4995470;28;20049;-40
2022/11/11 03:21:58;;;;;;;10.02;3.00;;;9.70;99.90;;;;;;4994518;28;20014;-40
2022/11/11 03:25:36;;;;;;;9.52;2.97;;;9.70;99.90;;;;;;4996518;28;20023;-39
2022/11/11 03:27:09;;;;;;;8.98;2.60;;;9.70;99.90;;;;;;4994645;28;20029;-39
2022/11/11 03:29:35;;;;;;;8.43;3.03;;;9.70;99.90;;;;;;4996345;28;20213;-40
2022/11/11 03:32:01;;;;;;;8.13;3.00;;;9.70;99.90;;;;;;5001245;28;20140;-40
2022/11/11 03:34:26;;;;;;;8.20;2.83;;;9.70;99.90;;;;;;4994961;28;20276;-40
2022/11/11 03:39:36;;;;;;;8.88;2.85;;;9.70;99.90;;;;;;4997275;28;20049;-39
2022/11/11 03:42:02;;;;;;;10.90;2.42;;;9.70;99.90;;;;;;4997641;28;20406;-39
2022/11/11 03:44:28;;;;;;;7.25;2.60;;;9.60;99.90;;;;;;4996750;28;20464;-39
2022/11/11 03:46:54;;;;;;;14.70;2.80;;;9.70;99.90;;;;;;4995318;28;20044;-39
2022/11/11 03:49:20;;;;;;;5.55;2.50;;;9.60;99.90;;;;;;4995358;28;20019;-40
2022/11/11 03:51:45;;;;;;;10.27;2.53;;;9.60;99.90;;;;;;4994575;28;20037;-39
2022/11/11 03:54:12;;;;;;;8.13;2.58;;;9.60;99.90;;;;;;4993026;28;20095;-39
2022/11/11 03:56:37;;;;;;;4.30;2.38;;;9.70;99.90;;;;;;4998803;28;20109;-40
2022/11/11 03:59:03;;;;;;;7.68;2.67;;;9.60;99.90;;;;;;4997188;28;20518;-40
2022/11/11 04:12:26;;;;;;;9.65;3.00;;;9.70;99.90;;;;;;5000774;28;20563;-39
2022/11/11 04:17:35;;;;;;;4.93;2.20;;;9.80;99.90;;;;;;4995993;28;20123;-39
2022/11/11 04:22:45;;;;;;;5.50;2.58;;;9.80;99.90;;;;;;5004253;28;20108;-39
2022/11/11 04:30:40;;;;;;;8.30;2.72;;;9.80;99.90;;;;;;4996129;28;20056;-39
2022/11/11 04:33:05;;;;;;;7.13;2.70;;;9.80;99.90;;;;;;4995050;28;20483;-39
2022/11/11 04:35:31;;;;;;;9.52;2.47;;;9.80;99.90;;;;;;4994891;28;20022;-39
2022/11/11 04:41:02;;;;;;;4.65;2.40;;;9.80;99.90;;;;;;4995594;28;20022;-39
2022/11/11 04:43:27;;;;;;;4.45;2.38;;;9.70;99.90;;;;;;4996431;28;20140;-39
2022/11/11 04:45:56;;;;;;;6.85;2.67;;;9.80;99.90;;;;;;4996309;28;20022;-39
2022/11/11 04:48:22;;;;;;;8.68;2.70;;;9.70;99.90;;;;;;4997023;28;20021;-39
2022/11/11 04:50:48;;;;;;;7.82;2.35;;;9.70;99.90;;;;;;4996664;28;20026;-39
2022/11/11 04:53:14;;;;;;;7.63;2.67;;;9.70;99.90;;;;;;4994090;28;20023;-39
2022/11/11 04:58:29;;;;;;;10.35;2.50;;;9.70;99.90;;;;;;4997126;28;20025;-39
2022/11/11 05:00:54;;;;;;;9.30;2.55;;;9.70;99.90;;;;;;4996316;28;20486;-39
2022/11/11 05:03:23;;;;;;;7.47;2.58;;;9.70;99.90;;;;;;4995881;28;20029;-39
2022/11/11 05:09:02;;;;;;;6.65;2.50;;;9.70;99.90;;;;;;4998455;28;20033;-39
2022/11/11 05:11:35;;;;;;;6.22;2.58;;;9.70;99.90;;;;;;4997391;28;20117;-39
2022/11/11 05:22:32;;;;;;;6.97;2.55;;;9.60;99.90;;;;;;4998605;28;20402;-39
2022/11/11 05:27:42;;;;;;;9.27;2.78;;;9.60;99.90;;;;;;4998352;28;20586;-40
2022/11/11 05:30:09;;;;;;;7.18;2.53;;;9.60;99.90;;;;;;4996289;28;20110;-39
2022/11/11 05:32:35;;;;;;;6.78;2.70;;;9.60;99.90;;;;;;4997834;28;20025;-39
2022/11/11 05:35:01;;;;;;;9.32;3.20;;;9.60;99.90;;;;;;4996850;28;20022;-39
2022/11/11 05:37:28;;;;;;;12.23;2.92;;;9.60;99.90;;;;;;4987950;28;20025;-39
2022/11/11 05:39:53;;;;;;;5.97;2.80;;;9.60;99.90;;;;;;5001973;28;20029;-39
2022/11/11 05:42:19;;;;;;;5.35;3.20;;;9.60;99.90;;;;;;5000988;28;20015;-39
2022/11/11 05:44:44;;;;;;;6.63;2.92;;;9.50;99.90;;;;;;4998567;28;20030;-46
2022/11/11 05:47:10;;;;;;;9.27;3.33;;;9.50;99.90;;;;;;4996778;28;20049;-39
2022/11/11 05:49:36;;;;;;;6.35;2.60;;;9.50;99.90;;;;;;5001110;28;20025;-39
2022/11/11 05:52:03;;;;;;;5.55;2.47;;;9.50;99.90;;;;;;4997912;28;20030;-39
2022/11/11 05:54:29;;;;;;;9.27;3.42;;;9.40;99.90;;;;;;4996464;28;20018;-39
2022/11/11 05:56:55;;;;;;;12.40;2.92;;;9.40;99.90;;;;;;5004388;28;20375;-40
2022/11/11 05:59:20;;;;;;;7.50;3.22;;;9.40;99.90;;;;;;5001594;28;20121;-38
2022/11/11 06:01:46;;;;;;;6.72;2.75;;;9.30;99.90;;;;;;5020912;28;20476;-38
2022/11/11 06:04:12;;;;;;;4.47;2.75;;;9.30;99.90;;;;;;4998431;28;20030;-39
2022/11/11 06:06:38;;;;;;;12.23;3.05;;;9.30;99.90;;;;;;5000681;28;20029;-39
2022/11/11 06:09:04;;;;;;;6.88;3.05;;;9.30;99.90;;;;;;4999603;28;20023;-38
2022/11/11 06:11:30;;;;;;;7.55;2.80;;;9.30;99.90;;;;;;4997652;28;20095;-38
2022/11/11 06:13:56;;;;;;;7.50;3.67;;;9.20;99.90;;;;;;4997266;28;20041;-39
2022/11/11 06:16:22;;;;;;;7.45;3.20;;;9.20;99.90;;;;;;4996868;28;20113;-38
2022/11/11 06:18:49;;;;;;;7.53;3.05;;;9.20;99.90;;;;;;4997891;28;20061;-39
2022/11/11 06:21:15;;;;;;;4.97;2.90;;;9.20;99.90;;;;;;4995795;28;20530;-39
2022/11/11 06:23:41;;;;;;;8.15;3.10;;;9.20;99.90;;;;;;4996729;28;20560;-39
2022/11/11 06:26:17;;;;;;;8.63;3.17;;;9.30;99.90;;;;;;4998634;28;20034;-39
2022/11/11 06:28:51;;;;;;;6.65;2.95;;;9.20;99.90;;;;;;4998354;28;20018;-40
2022/11/11 06:31:22;;;;;;;12.40;3.28;;;9.20;99.90;;;;;;4998779;28;20445;-40
2022/11/11 06:33:48;;;;;;;5.82;2.70;;;9.20;99.90;;;;;;4998410;28;20057;-40
2022/11/11 06:36:16;;;;;;;9.63;3.33;;;9.20;99.90;;;;;;5002622;28;20029;-40
2022/11/11 06:38:42;;;;;;;10.55;3.55;;;9.20;99.90;;;;;;4999650;28;20619;-40
2022/11/11 06:41:11;;;;;;;6.88;2.88;;;9.30;99.90;;;;;;4999684;28;20075;-39
2022/11/11 06:43:38;;;;;;;9.43;2.80;;;9.30;99.90;;;;;;4994447;28;20030;-39
2022/11/11 06:46:04;;;;;;;8.13;2.92;;;9.30;99.90;;;;;;5017773;28;20018;-40
2022/11/11 06:48:29;;;;;;;11.15;3.90;;;9.40;99.90;;;;;;5027636;28;20093;-39
2022/11/11 06:51:02;;;;;;;8.02;2.90;;;9.40;99.90;;;;;;5027581;28;20032;-42
2022/11/11 06:53:28;;;;;;;6.30;2.78;;;9.40;99.90;;;;;;5028992;28;20128;-39
2022/11/11 06:55:54;;;;;;;6.25;2.50;;;9.50;99.90;;;;;;5108957;28;20468;-39
2022/11/11 06:58:20;;;;;;;6.60;3.05;;;9.50;99.90;;;;;;5110967;28;20020;-39
2022/11/11 07:00:47;;;;;;;4.88;2.67;;;9.60;99.90;;;;;;5109335;28;20034;-38
2022/11/11 07:03:15;;;;;;;5.95;2.63;;;9.60;99.90;;;;;;5110282;28;20625;-38
2022/11/11 07:05:42;;;;;;;6.30;2.50;;;9.70;99.90;;;;;;5043479;28;20484;-38
2022/11/11 07:08:10;;;;;;;5.25;2.28;;;9.60;99.90;;;;;;5013696;28;20423;-38
2022/11/11 07:10:38;;;;;;;6.35;2.70;;;9.70;99.90;;;;;;4989754;28;20029;-38
2022/11/11 07:13:07;;;;;;;7.93;2.63;;;9.80;99.90;;;;;;4990786;28;20492;-38
2022/11/11 07:15:33;;;;;;;4.05;2.60;;;9.80;99.90;;;;;;5032347;28;20033;-38
2022/11/11 07:17:59;;;;;;;5.65;2.78;;;9.80;99.90;;;;;;5007068;28;20030;-38
2022/11/11 07:20:25;;;;;;;9.55;3.33;;;9.80;99.90;;;;;;4999921;28;20479;-38
2022/11/11 07:22:50;;;;;;;8.65;3.15;;;9.80;99.90;;;;;;5005373;28;20070;-38
2022/11/11 07:25:16;;;;;;;6.13;2.67;;;9.90;99.90;;;;;;5005452;28;20049;-38
2022/11/11 07:27:43;;;;;;;8.50;2.92;;;10.00;99.90;;;;;;5006963;28;20655;-38
2022/11/11 07:30:10;;;;;;;11.38;3.10;;;10.00;99.90;;;;;;5007211;28;20029;-38
2022/11/11 07:32:43;;;;;;;5.72;2.88;;;10.00;99.90;;;;;;5005316;28;20034;-39
2022/11/11 07:35:09;;;;;;;6.68;2.67;;;10.00;99.90;;;;;;5005909;28;20033;-39
2022/11/11 07:37:36;;;;;;;4.20;2.53;;;10.10;99.90;;;;;;5033607;28;20035;-40
2022/11/11 07:40:01;;;;;;;9.98;2.42;;;10.10;99.90;;;;;;5000640;28;20195;-38
2022/11/11 07:42:30;;;;;;;6.32;2.72;;;10.20;99.90;;;;;;5010627;28;20026;-39
2022/11/11 07:44:56;;;;;;;5.32;2.65;;;10.20;99.90;;;;;;5017081;28;20015;-39
2022/11/11 07:47:21;;;;;;;9.05;3.00;;;10.20;99.90;;;;;;5020989;28;20020;-38
2022/11/11 07:49:47;;;;;;;6.90;2.50;;;10.30;99.90;;;;;;5010706;28;20026;-39
2022/11/11 07:52:13;;;;;;;8.57;2.85;;;10.30;99.90;;;;;;4993865;28;20522;-38
2022/11/11 07:54:38;;;;;;;6.63;3.00;;;10.40;99.90;;;;;;5007544;28;20034;-38
2022/11/11 07:57:04;;;;;;;7.32;2.90;;;10.40;99.90;;;;;;5008035;28;20363;-38
2022/11/11 07:59:30;;;;;;;7.28;3.03;;;10.40;99.90;;;;;;5020973;28;20367;-38
2022/11/11 08:01:56;;;;;;;5.57;2.80;;;10.40;99.90;;;;;;5011854;28;20018;-38
2022/11/11 08:04:21;;;;;;;6.90;2.85;;;10.40;99.90;;;;;;5009415;28;20029;-38
2022/11/11 08:06:47;;;;;;;7.82;2.75;;;10.40;99.90;;;;;;5016857;28;20026;-38
2022/11/11 08:09:13;;;;;;;5.25;2.65;;;10.50;99.90;;;;;;5011944;28;20422;-38
2022/11/11 08:14:23;;;;;;;6.53;2.80;;;10.50;99.90;;;;;;5017800;28;20083;-38
2022/11/11 08:16:48;;;;;;;6.88;2.83;;;10.50;99.90;;;;;;4996491;28;20787;-39
2022/11/11 08:19:14;;;;;;;11.48;3.08;;;10.50;99.90;;;;;;5005632;28;20366;-38
2022/11/11 08:21:40;;;;;;;4.55;2.58;;;10.60;99.90;;;;;;5002131;28;20398;-39
2022/11/11 08:24:07;;;;;;;6.25;2.85;;;10.60;99.90;;;;;;5006993;28;20022;-38
2022/11/11 08:26:33;;;;;;;6.78;2.53;;;10.70;99.90;;;;;;5016454;28;20099;-38
2022/11/11 08:28:59;;;;;;;5.72;2.20;;;10.70;99.90;;;;;;5011468;28;20026;-38
2022/11/11 08:31:25;;;;;;;8.35;2.40;;;10.80;99.90;;;;;;5011542;28;20022;-39
2022/11/11 08:33:51;;;;;;;4.45;2.00;;;10.90;99.90;;;;;;5016162;28;20099;-38
2022/11/11 08:36:16;;;;;;;6.53;2.35;;;10.90;99.90;;;;;;5022157;28;20554;-38
2022/11/11 08:38:42;;;;;;;6.40;2.83;;;10.90;99.90;;;;;;5003849;28;20483;-39
2022/11/11 08:41:09;;;;;;;6.32;2.72;;;11.00;99.90;;;;;;5019163;28;20028;-40
2022/11/11 08:43:35;;;;;;;9.75;3.15;;;11.10;99.90;;;;;;5007537;28;20184;-39
2022/11/11 08:46:03;;;;;;;4.07;2.40;;;11.10;99.90;;;;;;5010506;28;20505;-39
2022/11/11 08:48:30;;;;;;;8.43;3.05;;;11.20;99.90;;;;;;5020047;28;20025;-40
2022/11/11 08:50:56;;;;;;;4.55;2.25;;;11.30;99.90;;;;;;5008542;28;20022;-39
2022/11/11 08:53:21;;;;;;;4.63;2.60;;;11.30;99.90;;;;;;5002456;28;20022;-39
2022/11/11 08:55:47;;;;;;;4.10;2.58;;;11.30;99.90;;;;;;5007011;28;20487;-40
2022/11/11 08:58:13;;;;;;;9.15;2.80;;;11.30;99.90;;;;;;5007825;28;20022;-39
2022/11/11 09:00:39;;;;;;;5.15;2.83;;;11.40;99.90;;;;;;5046599;28;20074;-40
2022/11/11 09:03:09;;;;;;;7.15;2.60;;;11.40;99.90;;;;;;5035700;28;20020;-39
2022/11/11 09:05:36;;;;;;;4.45;2.88;;;11.50;99.90;;;;;;4996440;28;20033;-39
2022/11/11 09:08:07;;;;;;;7.57;2.65;;;11.50;99.90;;;;;;4996377;28;20598;-38
2022/11/11 09:10:36;;;;;;;7.75;2.63;;;11.50;99.90;;;;;;4996100;28;20041;-38
2022/11/11 09:13:03;;;;;;;10.05;3.50;;;11.50;99.90;;;;;;4987021;28;20494;-38
2022/11/11 09:15:29;;;;;;;4.90;2.70;;;11.50;99.90;;;;;;5032720;28;20032;-38
2022/11/11 09:17:55;;;;;;;6.13;2.42;;;11.60;99.90;;;;;;5043623;28;20029;-39
2022/11/11 09:20:20;;;;;;;5.70;2.63;;;11.70;99.90;;;;;;5027167;28;20558;-38
2022/11/11 09:22:47;;;;;;;5.88;2.60;;;11.70;99.90;;;;;;5027825;28;20074;-39
2022/11/11 09:25:14;;;;;;;8.27;2.80;;;11.80;99.90;;;;;;5028038;28;20090;-39
2022/11/11 09:27:40;;;;;;;6.82;3.85;;;11.90;99.90;;;;;;5028536;28;20482;-39
2022/11/11 09:30:07;;;;;;;5.60;2.90;;;11.90;99.90;;;;;;5028499;28;20029;-39
2022/11/11 09:32:33;;;;;;;8.15;2.67;;;11.90;99.90;;;;;;5027337;28;20356;-39
2022/11/11 09:34:59;;;;;;;8.32;2.92;;;12.10;99.90;;;;;;5027474;28;20630;-39
2022/11/11 09:37:25;;;;;;;8.52;3.22;;;12.10;99.90;;;;;;5027468;28;20108;-39
2022/11/11 09:39:51;;;;;;;5.63;2.80;;;12.20;99.90;;;;;;5011605;28;20033;-39
2022/11/11 09:42:38;;;;;;;5.22;2.90;;;12.30;99.90;;;;;;5061396;28;20021;-39
2022/11/11 09:45:19;;;;;;;8.02;2.65;;;12.50;99.90;;;;;;5026019;28;20057;-38
2022/11/11 09:47:51;;;;;;;5.40;2.90;;;12.60;99.90;;;;;;5026297;28;20036;-38
2022/11/11 09:50:47;;;;;;;6.32;3.05;;;12.60;99.90;;;;;;5027261;28;20059;-37
2022/11/11 09:53:21;;;;;;;6.68;3.25;;;13.00;99.90;;;;;;5026123;28;20183;-38
2022/11/11 09:55:51;;;;;;;5.57;2.47;;;13.30;99.90;;;;;;5025712;28;20135;-39
2022/11/11 09:58:22;;;;;;;8.38;3.08;;;13.60;99.90;;;;;;5027601;28;20026;-38
2022/11/11 10:00:54;;;;;;;6.47;2.83;;;13.60;99.90;;;;;;5025668;28;20090;-39
2022/11/11 10:03:22;;;;;;;6.07;3.05;;;14.20;99.90;;;;;;5026666;28;20070;-38
2022/11/11 10:05:51;;;;;;;5.15;2.55;;;14.60;99.90;;;;;;5025956;28;20029;-39
2022/11/11 10:08:25;;;;;;;7.57;2.83;;;15.10;99.90;;;;;;5020959;28;20285;-39
2022/11/11 10:10:54;;;;;;;4.68;2.67;;;15.10;99.90;;;;;;5044295;28;20286;-39
2022/11/11 10:13:21;;;;;;;4.28;2.70;;;15.30;99.90;;;;;;5025424;28;20021;-39
2022/11/11 10:16:29;;;;;;;8.32;2.67;;;15.40;99.90;;;;;;5025281;28;20497;-42
2022/11/11 10:19:31;;;;;;;5.07;2.50;;;16.70;98.10;;;;;;4999068;28;20077;-39
2022/11/11 10:22:25;;;;;;;5.57;2.60;;;17.40;95.40;;;;;;4984610;28;20067;-39
2022/11/11 10:25:13;;;;;;;4.03;2.13;;;17.90;94.60;;;;;;5007053;28;20109;-38
2022/11/11 10:27:43;;;;;;;4.78;2.47;;;18.10;93.70;;;;;;5006000;28;20053;-38
2022/11/11 10:30:28;;;;;;;2.90;2.23;;;17.10;94.60;;;;;;5061043;28;20100;-38
2022/11/11 10:33:01;;;;;;;6.13;2.47;;;16.90;94.90;;;;;;5026224;28;20382;-38
2022/11/11 10:35:29;;;;;;;5.50;2.40;;;16.70;95.30;;;;;;5026917;28;20034;-39
2022/11/11 10:38:25;;;;;;;6.28;2.53;;;16.30;96.20;;;;;;5025229;28;20112;-38
2022/11/11 10:40:53;;;;;;;8.98;2.15;;;15.80;96.80;;;;;;5047930;28;20079;-39
2022/11/11 10:43:27;;;;;;;5.95;2.42;;;15.30;97.20;;;;;;5027424;28;20021;-38
2022/11/11 10:46:08;;;;;;;3.95;2.15;;;15.20;97.30;;;;;;5026340;28;20104;-38
2022/11/11 10:48:34;;;;;;;8.38;2.40;;;15.30;97.60;;;;;;4998146;28;20117;-38
2022/11/11 10:51:04;;;;;;;5.40;2.45;;;15.40;97.50;;;;;;4985616;28;20109;-38
2022/11/11 10:53:50;;;;;;;4.10;2.38;;;15.70;96.70;;;;;;4985098;28;20534;-39
2022/11/11 10:56:35;;;;;;;4.50;2.17;;;16.00;96.00;;;;;;4986972;28;20030;-39
2022/11/11 10:59:20;;;;;;;5.70;2.17;;;16.70;95.30;;;;;;5005227;28;20028;-39
2022/11/11 11:01:56;;;;;;;5.13;2.30;;;17.40;95.10;;;;;;4997661;28;20065;-39
2022/11/11 11:04:39;;;;;;;4.60;2.10;;;17.30;93.80;;;;;;4998766;28;20022;-39
2022/11/11 11:07:07;;;;;;;5.75;2.50;;;17.70;94.00;;;;;;5006340;28;20025;-39
2022/11/11 11:09:58;;;;;;;4.60;2.15;;;18.10;93.30;;;;;;5004936;28;20489;-39
2022/11/11 11:12:34;;;;;;;5.95;2.13;;;18.20;92.80;;;;;;5010414;28;20435;-39
2022/11/11 11:15:12;;;;;;;3.50;1.85;;;18.60;91.70;;;;;;5024625;28;20439;-39
2022/11/11 11:18:10;;;;;;;20.92;11.95;;;18.50;91.90;;;;;;5024618;28;20116;-39
2022/11/11 11:20:36;;;;;;;5.95;2.72;;;18.40;92.10;;;;;;5023097;28;20560;-39
2022/11/11 11:23:02;;;;;;;3.58;2.10;;;18.20;91.80;;;;;;5025308;28;20113;-39
2022/11/11 11:25:32;;;;;;;4.70;2.05;;;18.20;92.10;;;;;;5025198;28;20049;-39
2022/11/11 11:28:10;;;;;;;2.42;1.73;;;17.90;92.20;;;;;;5023838;28;20471;-39
2022/11/11 11:30:36;;;;;;;4.68;2.00;;;18.20;92.30;;;;;;5024218;28;20099;-39
2022/11/11 11:33:04;;;;;;;4.07;2.10;;;18.60;91.20;;;;;;5024168;28;20363;-39
2022/11/11 11:35:44;;;;;;;4.60;1.88;;;18.80;91.30;;;;;;5024448;28;20405;-39
2022/11/11 11:38:12;;;;;;;5.18;1.60;;;18.40;91.10;;;;;;5023237;28;20029;-39
2022/11/11 11:40:52;;;;;;;3.70;1.58;;;18.00;91.60;;;;;;5039948;28;20174;-39
2022/11/11 11:43:33;;;;;;;;;;;17.80;92.20;;;;;;5028343;28;20025;-39
2022/11/11 11:46:02;;;;;;;3.35;1.52;;;17.20;92.30;;;;;;5011901;28;19991;-39
2022/11/11 11:48:49;;;;;;;3.58;1.52;;;17.20;93.10;;;;;;5055735;28;20028;-39
2022/11/11 11:51:30;;;;;;;2.25;1.42;;;17.60;92.20;;;;;;5019910;28;20030;-39
2022/11/11 11:54:30;;;;;;;2.28;1.50;;;18.30;91.90;;;;;;5036911;28;20726;-39
2022/11/11 11:57:00;;;;;;;3.97;1.50;;;18.70;91.20;;;;;;4986839;28;20027;-40
2022/11/11 11:59:58;;;;;;;4.80;1.83;;;19.50;90.80;;;;;;5027101;28;20011;-39
2022/11/11 12:03:01;;;;;;;3.85;1.85;;;19.50;89.40;;;;;;4986020;28;20037;-40
2022/11/11 12:06:12;;;;;;;6.82;1.80;;;20.10;89.50;;;;;;4986381;28;20503;-39
2022/11/11 12:08:57;;;;;;;4.25;1.70;;;20.40;86.90;;;;;;4986345;28;20072;-39
2022/11/11 12:11:32;;;;;;;3.65;1.33;;;20.80;84.60;;;;;;4984844;28;20027;-39
2022/11/11 12:14:25;;;;;;;2.15;1.55;;;20.80;85.90;;;;;;5053349;28;20073;-39
2022/11/11 12:17:02;;;;;;;2.47;1.40;;;21.10;82.50;;;;;;5025621;28;20490;-39
2022/11/11 12:19:54;;;;;;;3.13;1.65;;;20.60;83.90;;;;;;5025644;28;20034;-39
2022/11/11 12:22:26;;;;;;;3.15;1.55;;;20.30;83.80;;;;;;5025157;28;20041;-39
2022/11/11 12:25:12;;;;;;;1.98;1.40;;;19.90;87.00;;;;;;5025458;28;20108;-39
2022/11/11 12:27:54;;;;;;;2.47;1.50;;;20.00;85.00;;;;;;5023779;28;20032;-39
2022/11/11 12:30:27;;;;;;;4.55;1.77;;;19.50;85.30;;;;;;5025802;28;20024;-39
2022/11/11 12:33:14;;;;;;;3.67;1.80;;;19.20;86.50;;;;;;5024649;28;20028;-39
2022/11/11 12:36:00;;;;;;;4.05;2.25;;;18.70;87.70;;;;;;5024106;28;20020;-39
2022/11/11 12:39:00;;;;;;;4.88;2.20;;;18.10;89.60;;;;;;5025396;28;20026;-39
2022/11/11 12:41:35;;;;;;;2.83;1.52;;;17.70;89.70;;;;;;5003368;28;20054;-39
2022/11/11 12:44:11;;;;;;;5.07;1.95;;;17.20;91.30;;;;;;5008651;28;20030;-39
2022/11/11 12:46:59;;;;;;;3.80;1.98;;;17.20;91.20;;;;;;5030679;28;20027;-39
2022/11/11 12:50:11;;;;;;;2.00;1.75;;;17.20;91.70;;;;;;4987505;28;20510;-39
2022/11/11 12:52:43;;;;;;;5.45;2.08;;;17.00;91.30;;;;;;4987800;28;20095;-39
2022/11/11 12:55:27;;;;;;;3.95;2.45;;;17.00;91.50;;;;;;4988596;28;20030;-39
2022/11/11 12:58:38;;;;;;;3.00;2.17;;;16.80;91.80;;;;;;4988104;28;20064;-39
2022/11/11 13:01:34;;;;;;;6.90;2.50;;;16.70;91.80;;;;;;4970003;28;20042;-39
2022/11/11 13:04:31;;;;;;;4.57;2.10;;;16.50;92.00;;;;;;4988566;28;20133;-39
2022/11/11 13:07:33;;;;;;;3.60;1.70;;;16.50;92.70;;;;;;4987024;28;20109;-39
2022/11/11 13:10:25;;;;;;;2.40;1.98;;;16.50;92.30;;;;;;4987934;28;20027;-39
2022/11/11 13:12:59;;;;;;;3.80;2.30;;;16.20;92.60;;;;;;4987874;28;20029;-43
2022/11/11 13:15:27;;;;;;;7.35;1.90;;;16.20;92.70;;;;;;4998764;28;20021;-39
2022/11/11 13:17:52;;;;;;;3.13;1.75;;;16.30;92.90;;;;;;5061626;28;20059;-38
2022/11/11 13:20:44;;;;;;;6.72;1.88;;;16.30;92.50;;;;;;5027472;28;20061;-39
2022/11/11 13:23:11;;;;;;;4.72;2.28;;;16.30;92.40;;;;;;5018099;28;20053;-38
2022/11/11 13:25:45;;;;;;;4.82;2.38;;;16.30;92.30;;;;;;5027342;28;20025;-38
2022/11/11 13:28:19;;;;;;;4.78;2.38;;;16.20;92.10;;;;;;5025959;28;20022;-38
2022/11/11 13:30:56;;;;;;;8.57;2.60;;;16.00;92.90;;;;;;5028159;28;20040;-39
2022/11/11 13:33:35;;;;;;;6.35;2.60;;;16.10;92.50;;;;;;5028073;28;20486;-38
2022/11/11 13:36:02;;;;;;;3.55;2.05;;;16.00;92.20;;;;;;5028320;28;20022;-38
2022/11/11 13:38:38;;;;;;;3.88;1.85;;;16.00;92.60;;;;;;5028386;28;20504;-39
2022/11/11 13:41:08;;;;;;;5.00;2.05;;;16.10;92.40;;;;;;5028559;28;20037;-39
2022/11/11 13:43:42;;;;;;;5.63;2.00;;;15.90;92.20;;;;;;5007000;28;20080;-39
2022/11/11 13:46:30;;;;;;;4.45;1.73;;;15.90;92.70;;;;;;5003576;28;20097;-39
2022/11/11 13:48:56;;;;;;;4.88;1.92;;;15.90;92.50;;;;;;5025024;28;20093;-39
2022/11/11 13:51:31;;;;;;;3.67;1.73;;;15.90;92.70;;;;;;5026554;28;20029;-38
2022/11/11 13:53:58;;;;;;;2.42;1.60;;;15.80;92.70;;;;;;5028607;28;20046;-39
2022/11/11 13:56:35;;;;;;;4.28;1.88;;;15.80;92.40;;;;;;5028441;28;20263;-39
2022/11/11 13:59:01;;;;;;;5.20;1.70;;;15.80;92.80;;;;;;5028272;28;20060;-40
2022/11/11 14:01:39;;;;;;;3.15;1.92;;;15.80;93.30;;;;;;5027722;28;20061;-39
2022/11/11 14:04:07;;;;;;;2.67;1.58;;;15.70;92.50;;;;;;5026575;28;20375;-40
2022/11/11 14:06:32;;;;;;;4.03;1.70;;;15.70;93.30;;;;;;5010993;28;20023;-39
2022/11/11 14:08:58;;;;;;;3.05;1.70;;;15.70;92.10;;;;;;4988438;28;20048;-39
2022/11/11 14:11:24;;;;;;;3.17;1.70;;;15.60;92.60;;;;;;4993877;28;20030;-38
2022/11/11 14:13:51;;;;;;;5.22;2.10;;;15.50;92.90;;;;;;4991021;28;20117;-38
2022/11/11 14:16:34;;;;;;;3.83;1.95;;;15.40;93.40;;;;;;5002232;28;20102;-39
2022/11/11 14:19:15;;;;;;;4.78;2.50;;;15.40;93.10;;;;;;5000796;28;20113;-38
2022/11/11 14:21:49;;;;;;;4.47;2.10;;;15.50;93.10;;;;;;4988245;28;20095;-38
2022/11/11 14:24:37;;;;;;;3.65;1.90;;;15.30;93.10;;;;;;4989469;28;20022;-39